sensor_id;sensor_type;location;lat;lon;timestamp;P1;durP1;ratioP1;P2;durP2;ratioP2
44366;SDS011;30086;57.660;12.000;2023-01-16T00:01:16;25.67;;;3.95;;
44366;SDS011;30086;57.660;12.000;2023-01-16T00:03:42;20.13;;;3.30;;
44366;SDS011;30086;57.660;12.000;2023-01-16T00:06:08;23.60;;;4.05;;
44366;SDS011;30086;57.660;12.000;2023-01-16T00:08:34;24.33;;;4.35;;
44366;SDS011;30086;57.660;12.000;2023-01-16T00:11:00;14.05;;;2.50;;
44366;SDS011;30086;57.660;12.000;2023-01-16T00:13:26;21.05;;;3.67;;
44366;SDS011;30086;57.660;12.000;2023-01-16T00:15:52;25.30;;;4.50;;
44366;SDS011;30086;57.660;12.000;2023-01-16T00:18:18;24.70;;;5.25;;
44366;SDS011;30086;57.660;12.000;2023-01-16T00:20:45;24.83;;;4.00;;
44366;SDS011;30086;57.660;12.000;2023-01-16T00:23:12;14.73;;;2.70;;
44366;SDS011;30086;57.660;12.000;2023-01-16T00:25:38;24.02;;;5.80;;
44366;SDS011;30086;57.660;12.000;2023-01-16T00:28:06;19.55;;;3.13;;
44366;SDS011;30086;57.660;12.000;2023-01-16T00:30:32;17.80;;;4.03;;
44366;SDS011;30086;57.660;12.000;2023-01-16T00:32:58;32.00;;;3.97;;
44366;SDS011;30086;57.660;12.000;2023-01-16T00:35:24;29.23;;;4.78;;
44366;SDS011;30086;57.660;12.000;2023-01-16T00:37:51;22.67;;;3.45;;
44366;SDS011;30086;57.660;12.000;2023-01-16T00:40:17;14.05;;;2.65;;
44366;SDS011;30086;57.660;12.000;2023-01-16T00:42:44;15.93;;;3.92;;
44366;SDS011;30086;57.660;12.000;2023-01-16T00:45:10;17.50;;;3.38;;
44366;SDS011;30086;57.660;12.000;2023-01-16T00:47:36;6.40;;;1.67;;
44366;SDS011;30086;57.660;12.000;2023-01-16T00:50:02;11.75;;;2.28;;
44366;SDS011;30086;57.660;12.000;2023-01-16T00:52:29;20.08;;;3.95;;
44366;SDS011;30086;57.660;12.000;2023-01-16T00:54:55;20.13;;;4.47;;
44366;SDS011;30086;57.660;12.000;2023-01-16T00:57:21;19.08;;;3.42;;
44366;SDS011;30086;57.660;12.000;2023-01-16T00:59:47;13.20;;;2.13;;
44366;SDS011;30086;57.660;12.000;2023-01-16T01:02:13;7.65;;;2.00;;
44366;SDS011;30086;57.660;12.000;2023-01-16T01:04:39;18.13;;;2.63;;
44366;SDS011;30086;57.660;12.000;2023-01-16T01:07:05;23.38;;;4.45;;
44366;SDS011;30086;57.660;12.000;2023-01-16T01:09:31;12.48;;;2.05;;
44366;SDS011;30086;57.660;12.000;2023-01-16T01:11:58;13.50;;;1.45;;
44366;SDS011;30086;57.660;12.000;2023-01-16T01:14:24;12.90;;;2.13;;
44366;SDS011;30086;57.660;12.000;2023-01-16T01:16:50;22.45;;;3.95;;
44366;SDS011;30086;57.660;12.000;2023-01-16T01:19:16;4.72;;;1.23;;
44366;SDS011;30086;57.660;12.000;2023-01-16T01:21:43;11.98;;;2.38;;
44366;SDS011;30086;57.660;12.000;2023-01-16T01:24:09;13.65;;;2.55;;
44366;SDS011;30086;57.660;12.000;2023-01-16T01:26:35;11.57;;;1.83;;
44366;SDS011;30086;57.660;12.000;2023-01-16T01:29:01;12.23;;;3.00;;
44366;SDS011;30086;57.660;12.000;2023-01-16T01:31:30;11.52;;;1.88;;
44366;SDS011;30086;57.660;12.000;2023-01-16T01:33:56;14.32;;;1.77;;
44366;SDS011;30086;57.660;12.000;2023-01-16T01:36:22;16.48;;;2.97;;
44366;SDS011;30086;57.660;12.000;2023-01-16T01:38:48;16.42;;;3.28;;
44366;SDS011;30086;57.660;12.000;2023-01-16T01:41:15;8.27;;;1.90;;
44366;SDS011;30086;57.660;12.000;2023-01-16T01:43:42;11.60;;;2.10;;
44366;SDS011;30086;57.660;12.000;2023-01-16T01:46:14;11.45;;;1.17;;
44366;SDS011;30086;57.660;12.000;2023-01-16T01:48:41;19.60;;;2.50;;
44366;SDS011;30086;57.660;12.000;2023-01-16T01:51:13;11.73;;;2.35;;
44366;SDS011;30086;57.660;12.000;2023-01-16T01:53:52;20.17;;;3.25;;
44366;SDS011;30086;57.660;12.000;2023-01-16T01:56:41;14.32;;;2.58;;
44366;SDS011;30086;57.660;12.000;2023-01-16T01:59:06;20.08;;;2.53;;
44366;SDS011;30086;57.660;12.000;2023-01-16T02:01:33;15.57;;;3.55;;
44366;SDS011;30086;57.660;12.000;2023-01-16T02:04:21;8.68;;;1.60;;
44366;SDS011;30086;57.660;12.000;2023-01-16T02:06:47;20.52;;;3.22;;
44366;SDS011;30086;57.660;12.000;2023-01-16T02:09:13;20.85;;;3.20;;
44366;SDS011;30086;57.660;12.000;2023-01-16T02:12:01;20.48;;;3.53;;
44366;SDS011;30086;57.660;12.000;2023-01-16T02:14:30;23.55;;;4.38;;
44366;SDS011;30086;57.660;12.000;2023-01-16T02:17:16;11.38;;;1.90;;
44366;SDS011;30086;57.660;12.000;2023-01-16T02:43:43;18.42;;;2.65;;
44366;SDS011;30086;57.660;12.000;2023-01-16T02:56:27;23.48;;;4.75;;
44366;SDS011;30086;57.660;12.000;2023-01-16T02:58:56;18.60;;;4.22;;
44366;SDS011;30086;57.660;12.000;2023-01-16T03:01:22;19.45;;;3.13;;
44366;SDS011;30086;57.660;12.000;2023-01-16T03:06:30;24.05;;;4.60;;
44366;SDS011;30086;57.660;12.000;2023-01-16T03:09:16;30.63;;;5.30;;
44366;SDS011;30086;57.660;12.000;2023-01-16T03:11:47;25.35;;;3.55;;
44366;SDS011;30086;57.660;12.000;2023-01-16T03:26:45;17.55;;;2.72;;
44366;SDS011;30086;57.660;12.000;2023-01-16T03:29:18;29.13;;;4.25;;
44366;SDS011;30086;57.660;12.000;2023-01-16T03:31:49;19.48;;;2.47;;
44366;SDS011;30086;57.660;12.000;2023-01-16T03:36:51;22.40;;;4.75;;
44366;SDS011;30086;57.660;12.000;2023-01-16T03:39:18;19.77;;;2.90;;
44366;SDS011;30086;57.660;12.000;2023-01-16T03:41:46;35.60;;;5.63;;
44366;SDS011;30086;57.660;12.000;2023-01-16T03:44:14;28.52;;;4.07;;
44366;SDS011;30086;57.660;12.000;2023-01-16T03:46:44;17.27;;;3.10;;
44366;SDS011;30086;57.660;12.000;2023-01-16T03:49:14;24.08;;;4.32;;
44366;SDS011;30086;57.660;12.000;2023-01-16T03:51:44;19.73;;;3.40;;
44366;SDS011;30086;57.660;12.000;2023-01-16T03:56:45;24.20;;;4.30;;
44366;SDS011;30086;57.660;12.000;2023-01-16T03:59:13;32.67;;;5.13;;
44366;SDS011;30086;57.660;12.000;2023-01-16T04:01:43;14.70;;;2.17;;
44366;SDS011;30086;57.660;12.000;2023-01-16T04:04:14;23.80;;;4.40;;
44366;SDS011;30086;57.660;12.000;2023-01-16T04:06:46;25.83;;;4.18;;
44366;SDS011;30086;57.660;12.000;2023-01-16T04:09:24;29.70;;;3.85;;
44366;SDS011;30086;57.660;12.000;2023-01-16T04:11:52;27.48;;;3.65;;
44366;SDS011;30086;57.660;12.000;2023-01-16T04:14:19;28.38;;;5.70;;
44366;SDS011;30086;57.660;12.000;2023-01-16T04:16:46;8.70;;;1.95;;
44366;SDS011;30086;57.660;12.000;2023-01-16T04:19:13;16.10;;;2.97;;
44366;SDS011;30086;57.660;12.000;2023-01-16T04:21:42;18.98;;;4.32;;
44366;SDS011;30086;57.660;12.000;2023-01-16T04:24:08;18.17;;;2.90;;
44366;SDS011;30086;57.660;12.000;2023-01-16T04:26:34;24.00;;;3.40;;
44366;SDS011;30086;57.660;12.000;2023-01-16T04:29:00;25.85;;;5.03;;
44366;SDS011;30086;57.660;12.000;2023-01-16T04:31:26;20.27;;;3.00;;
44366;SDS011;30086;57.660;12.000;2023-01-16T04:33:53;22.65;;;3.97;;
44366;SDS011;30086;57.660;12.000;2023-01-16T04:36:19;22.10;;;3.80;;
44366;SDS011;30086;57.660;12.000;2023-01-16T04:38:46;19.40;;;4.78;;
44366;SDS011;30086;57.660;12.000;2023-01-16T04:41:12;28.40;;;4.95;;
44366;SDS011;30086;57.660;12.000;2023-01-16T04:43:58;31.88;;;4.43;;
44366;SDS011;30086;57.660;12.000;2023-01-16T04:46:24;26.27;;;4.32;;
44366;SDS011;30086;57.660;12.000;2023-01-16T04:48:50;28.38;;;5.25;;
44366;SDS011;30086;57.660;12.000;2023-01-16T04:51:16;30.77;;;5.53;;
44366;SDS011;30086;57.660;12.000;2023-01-16T04:53:42;17.10;;;2.15;;
44366;SDS011;30086;57.660;12.000;2023-01-16T04:56:11;26.40;;;4.53;;
44366;SDS011;30086;57.660;12.000;2023-01-16T04:58:37;30.88;;;4.45;;
44366;SDS011;30086;57.660;12.000;2023-01-16T05:01:03;25.08;;;4.38;;
44366;SDS011;30086;57.660;12.000;2023-01-16T05:03:29;27.65;;;4.60;;
44366;SDS011;30086;57.660;12.000;2023-01-16T05:05:55;29.75;;;4.63;;
44366;SDS011;30086;57.660;12.000;2023-01-16T05:08:21;28.55;;;4.35;;
44366;SDS011;30086;57.660;12.000;2023-01-16T05:10:52;27.27;;;4.88;;
44366;SDS011;30086;57.660;12.000;2023-01-16T05:13:19;23.13;;;4.03;;
44366;SDS011;30086;57.660;12.000;2023-01-16T05:15:45;26.83;;;5.03;;
44366;SDS011;30086;57.660;12.000;2023-01-16T05:18:11;37.92;;;4.40;;
44366;SDS011;30086;57.660;12.000;2023-01-16T05:20:38;34.20;;;3.88;;
44366;SDS011;30086;57.660;12.000;2023-01-16T05:23:04;30.85;;;5.10;;
44366;SDS011;30086;57.660;12.000;2023-01-16T05:25:31;30.02;;;5.28;;
44366;SDS011;30086;57.660;12.000;2023-01-16T05:27:57;23.10;;;3.95;;
44366;SDS011;30086;57.660;12.000;2023-01-16T05:30:23;28.15;;;4.13;;
44366;SDS011;30086;57.660;12.000;2023-01-16T05:32:49;30.83;;;4.78;;
44366;SDS011;30086;57.660;12.000;2023-01-16T05:35:15;27.40;;;5.22;;
44366;SDS011;30086;57.660;12.000;2023-01-16T05:37:42;25.02;;;3.83;;
44366;SDS011;30086;57.660;12.000;2023-01-16T05:40:08;26.65;;;5.43;;
44366;SDS011;30086;57.660;12.000;2023-01-16T05:42:35;25.73;;;4.93;;
44366;SDS011;30086;57.660;12.000;2023-01-16T05:45:01;31.95;;;4.60;;
44366;SDS011;30086;57.660;12.000;2023-01-16T05:47:27;33.30;;;4.75;;
44366;SDS011;30086;57.660;12.000;2023-01-16T05:49:53;18.77;;;2.85;;
44366;SDS011;30086;57.660;12.000;2023-01-16T05:52:23;25.42;;;4.55;;
44366;SDS011;30086;57.660;12.000;2023-01-16T05:54:49;35.15;;;4.40;;
44366;SDS011;30086;57.660;12.000;2023-01-16T05:57:16;42.20;;;5.32;;
44366;SDS011;30086;57.660;12.000;2023-01-16T06:00:03;35.10;;;5.25;;
44366;SDS011;30086;57.660;12.000;2023-01-16T06:02:33;22.90;;;4.15;;
44366;SDS011;30086;57.660;12.000;2023-01-16T06:05:01;20.20;;;4.05;;
44366;SDS011;30086;57.660;12.000;2023-01-16T06:07:28;44.22;;;4.63;;
44366;SDS011;30086;57.660;12.000;2023-01-16T06:09:54;22.88;;;3.80;;
44366;SDS011;30086;57.660;12.000;2023-01-16T06:12:20;17.33;;;3.08;;
44366;SDS011;30086;57.660;12.000;2023-01-16T06:14:46;32.38;;;4.78;;
44366;SDS011;30086;57.660;12.000;2023-01-16T06:17:12;35.00;;;4.43;;
44366;SDS011;30086;57.660;12.000;2023-01-16T06:19:39;29.10;;;5.10;;
44366;SDS011;30086;57.660;12.000;2023-01-16T06:22:05;24.02;;;3.40;;
44366;SDS011;30086;57.660;12.000;2023-01-16T06:24:31;19.27;;;3.53;;
44366;SDS011;30086;57.660;12.000;2023-01-16T06:26:58;27.27;;;4.53;;
44366;SDS011;30086;57.660;12.000;2023-01-16T06:29:24;33.13;;;4.35;;
44366;SDS011;30086;57.660;12.000;2023-01-16T06:31:50;30.30;;;3.50;;
44366;SDS011;30086;57.660;12.000;2023-01-16T06:34:16;25.08;;;4.82;;
44366;SDS011;30086;57.660;12.000;2023-01-16T06:36:42;22.30;;;2.97;;
44366;SDS011;30086;57.660;12.000;2023-01-16T06:39:11;6.47;;;1.67;;
44366;SDS011;30086;57.660;12.000;2023-01-16T06:41:37;22.90;;;4.93;;
44366;SDS011;30086;57.660;12.000;2023-01-16T06:44:03;21.38;;;2.47;;
44366;SDS011;30086;57.660;12.000;2023-01-16T06:46:29;26.08;;;3.35;;
44366;SDS011;30086;57.660;12.000;2023-01-16T06:48:56;26.30;;;3.85;;
44366;SDS011;30086;57.660;12.000;2023-01-16T06:51:22;16.88;;;2.92;;
44366;SDS011;30086;57.660;12.000;2023-01-16T06:53:48;31.35;;;3.63;;
44366;SDS011;30086;57.660;12.000;2023-01-16T06:56:14;18.00;;;2.78;;
44366;SDS011;30086;57.660;12.000;2023-01-16T06:58:42;16.83;;;2.75;;
44366;SDS011;30086;57.660;12.000;2023-01-16T07:01:08;19.27;;;3.58;;
44366;SDS011;30086;57.660;12.000;2023-01-16T07:03:34;15.05;;;2.75;;
44366;SDS011;30086;57.660;12.000;2023-01-16T07:06:01;13.68;;;2.42;;
44366;SDS011;30086;57.660;12.000;2023-01-16T07:08:27;19.33;;;3.00;;
44366;SDS011;30086;57.660;12.000;2023-01-16T07:10:53;26.13;;;3.70;;
44366;SDS011;30086;57.660;12.000;2023-01-16T07:13:19;21.35;;;3.10;;
44366;SDS011;30086;57.660;12.000;2023-01-16T07:15:51;19.17;;;2.78;;
44366;SDS011;30086;57.660;12.000;2023-01-16T07:18:36;27.38;;;3.45;;
44366;SDS011;30086;57.660;12.000;2023-01-16T07:21:21;10.68;;;1.38;;
44366;SDS011;30086;57.660;12.000;2023-01-16T07:24:08;22.60;;;3.83;;
44366;SDS011;30086;57.660;12.000;2023-01-16T07:26:36;21.25;;;3.38;;
44366;SDS011;30086;57.660;12.000;2023-01-16T07:29:03;20.80;;;3.38;;
44366;SDS011;30086;57.660;12.000;2023-01-16T07:31:29;18.98;;;3.72;;
44366;SDS011;30086;57.660;12.000;2023-01-16T07:33:57;27.95;;;3.47;;
44366;SDS011;30086;57.660;12.000;2023-01-16T07:36:23;18.92;;;2.75;;
44366;SDS011;30086;57.660;12.000;2023-01-16T07:38:51;16.17;;;1.90;;
44366;SDS011;30086;57.660;12.000;2023-01-16T07:41:17;19.08;;;2.92;;
44366;SDS011;30086;57.660;12.000;2023-01-16T07:43:44;19.73;;;3.15;;
44366;SDS011;30086;57.660;12.000;2023-01-16T07:46:11;15.70;;;2.97;;
44366;SDS011;30086;57.660;12.000;2023-01-16T07:48:37;15.00;;;3.40;;
44366;SDS011;30086;57.660;12.000;2023-01-16T07:51:03;21.42;;;2.97;;
44366;SDS011;30086;57.660;12.000;2023-01-16T07:53:30;11.15;;;2.42;;
44366;SDS011;30086;57.660;12.000;2023-01-16T07:55:57;15.82;;;3.25;;
44366;SDS011;30086;57.660;12.000;2023-01-16T07:58:23;16.17;;;2.47;;
44366;SDS011;30086;57.660;12.000;2023-01-16T08:00:51;20.35;;;2.95;;
44366;SDS011;30086;57.660;12.000;2023-01-16T08:03:17;22.55;;;3.53;;
44366;SDS011;30086;57.660;12.000;2023-01-16T08:05:43;15.60;;;2.80;;
44366;SDS011;30086;57.660;12.000;2023-01-16T08:08:10;16.45;;;3.35;;
44366;SDS011;30086;57.660;12.000;2023-01-16T08:10:36;17.48;;;3.90;;
44366;SDS011;30086;57.660;12.000;2023-01-16T08:13:03;13.05;;;2.20;;
44366;SDS011;30086;57.660;12.000;2023-01-16T08:15:29;17.23;;;3.80;;
44366;SDS011;30086;57.660;12.000;2023-01-16T08:17:55;15.82;;;3.03;;
44366;SDS011;30086;57.660;12.000;2023-01-16T08:20:21;23.95;;;3.15;;
44366;SDS011;30086;57.660;12.000;2023-01-16T08:22:50;25.27;;;3.25;;
44366;SDS011;30086;57.660;12.000;2023-01-16T08:25:17;18.90;;;4.13;;
44366;SDS011;30086;57.660;12.000;2023-01-16T08:27:43;17.98;;;3.15;;
44366;SDS011;30086;57.660;12.000;2023-01-16T08:30:09;10.95;;;2.10;;
44366;SDS011;30086;57.660;12.000;2023-01-16T08:32:36;11.45;;;3.03;;
44366;SDS011;30086;57.660;12.000;2023-01-16T08:35:10;18.40;;;3.42;;
44366;SDS011;30086;57.660;12.000;2023-01-16T08:37:47;25.55;;;3.28;;
44366;SDS011;30086;57.660;12.000;2023-01-16T08:40:13;27.33;;;3.40;;
44366;SDS011;30086;57.660;12.000;2023-01-16T08:42:39;18.70;;;2.95;;
44366;SDS011;30086;57.660;12.000;2023-01-16T08:45:24;12.55;;;2.80;;
44366;SDS011;30086;57.660;12.000;2023-01-16T08:48:09;24.42;;;2.80;;
44366;SDS011;30086;57.660;12.000;2023-01-16T08:50:54;17.50;;;2.85;;
44366;SDS011;30086;57.660;12.000;2023-01-16T08:53:40;22.98;;;3.83;;
44366;SDS011;30086;57.660;12.000;2023-01-16T08:56:06;19.77;;;2.90;;
44366;SDS011;30086;57.660;12.000;2023-01-16T08:58:34;16.38;;;2.60;;
44366;SDS011;30086;57.660;12.000;2023-01-16T09:01:00;18.30;;;4.00;;
44366;SDS011;30086;57.660;12.000;2023-01-16T09:03:26;13.95;;;2.40;;
44366;SDS011;30086;57.660;12.000;2023-01-16T09:05:52;20.90;;;3.42;;
44366;SDS011;30086;57.660;12.000;2023-01-16T09:08:18;23.90;;;3.08;;
44366;SDS011;30086;57.660;12.000;2023-01-16T09:10:44;23.67;;;3.25;;
44366;SDS011;30086;57.660;12.000;2023-01-16T09:13:30;29.38;;;3.70;;
44366;SDS011;30086;57.660;12.000;2023-01-16T09:18:40;18.42;;;2.85;;
44366;SDS011;30086;57.660;12.000;2023-01-16T09:21:06;26.33;;;3.47;;
44366;SDS011;30086;57.660;12.000;2023-01-16T09:23:32;15.05;;;2.25;;
44366;SDS011;30086;57.660;12.000;2023-01-16T09:25:58;16.80;;;3.13;;
44366;SDS011;30086;57.660;12.000;2023-01-16T09:28:24;18.67;;;3.05;;
44366;SDS011;30086;57.660;12.000;2023-01-16T09:30:51;27.02;;;3.50;;
44366;SDS011;30086;57.660;12.000;2023-01-16T09:33:17;14.90;;;2.45;;
44366;SDS011;30086;57.660;12.000;2023-01-16T09:35:43;15.45;;;2.55;;
44366;SDS011;30086;57.660;12.000;2023-01-16T09:38:09;14.23;;;3.83;;
44366;SDS011;30086;57.660;12.000;2023-01-16T09:40:35;16.95;;;2.58;;
44366;SDS011;30086;57.660;12.000;2023-01-16T09:48:38;23.65;;;3.90;;
44366;SDS011;30086;57.660;12.000;2023-01-16T09:51:13;16.23;;;2.90;;
44366;SDS011;30086;57.660;12.000;2023-01-16T09:53:41;14.88;;;2.28;;
44366;SDS011;30086;57.660;12.000;2023-01-16T09:56:30;15.95;;;2.88;;
44366;SDS011;30086;57.660;12.000;2023-01-16T09:59:21;18.05;;;2.88;;
44366;SDS011;30086;57.660;12.000;2023-01-16T10:01:52;12.90;;;2.83;;
44366;SDS011;30086;57.660;12.000;2023-01-16T10:04:20;18.88;;;2.40;;
44366;SDS011;30086;57.660;12.000;2023-01-16T10:06:52;21.63;;;2.97;;
44366;SDS011;30086;57.660;12.000;2023-01-16T10:12:08;21.20;;;2.85;;
44366;SDS011;30086;57.660;12.000;2023-01-16T10:17:09;25.42;;;4.10;;
44366;SDS011;30086;57.660;12.000;2023-01-16T10:22:24;20.45;;;3.00;;
44366;SDS011;30086;57.660;12.000;2023-01-16T10:30:43;21.60;;;3.72;;
44366;SDS011;30086;57.660;12.000;2023-01-16T10:35:57;23.92;;;3.60;;
44366;SDS011;30086;57.660;12.000;2023-01-16T10:41:06;20.70;;;4.85;;
44366;SDS011;30086;57.660;12.000;2023-01-16T10:43:54;18.63;;;3.83;;
44366;SDS011;30086;57.660;12.000;2023-01-16T10:46:39;25.02;;;3.53;;
44366;SDS011;30086;57.660;12.000;2023-01-16T10:49:25;20.23;;;2.78;;
44366;SDS011;30086;57.660;12.000;2023-01-16T10:51:51;17.77;;;2.92;;
44366;SDS011;30086;57.660;12.000;2023-01-16T10:54:17;21.27;;;3.25;;
44366;SDS011;30086;57.660;12.000;2023-01-16T10:56:43;16.40;;;2.53;;
44366;SDS011;30086;57.660;12.000;2023-01-16T10:59:10;15.75;;;1.88;;
44366;SDS011;30086;57.660;12.000;2023-01-16T11:01:37;22.63;;;3.13;;
44366;SDS011;30086;57.660;12.000;2023-01-16T11:04:05;21.65;;;3.20;;
44366;SDS011;30086;57.660;12.000;2023-01-16T11:06:31;25.27;;;4.57;;
44366;SDS011;30086;57.660;12.000;2023-01-16T11:11:23;16.98;;;2.42;;
44366;SDS011;30086;57.660;12.000;2023-01-16T11:16:56;20.83;;;4.68;;
44366;SDS011;30086;57.660;12.000;2023-01-16T11:19:52;20.50;;;3.20;;
44366;SDS011;30086;57.660;12.000;2023-01-16T11:22:22;18.13;;;3.38;;
44366;SDS011;30086;57.660;12.000;2023-01-16T11:24:52;27.63;;;3.88;;
44366;SDS011;30086;57.660;12.000;2023-01-16T11:27:20;12.02;;;2.65;;
44366;SDS011;30086;57.660;12.000;2023-01-16T11:29:51;17.70;;;4.10;;
44366;SDS011;30086;57.660;12.000;2023-01-16T11:32:17;25.27;;;3.40;;
44366;SDS011;30086;57.660;12.000;2023-01-16T11:34:49;19.02;;;3.55;;
44366;SDS011;30086;57.660;12.000;2023-01-16T11:37:16;17.17;;;2.65;;
44366;SDS011;30086;57.660;12.000;2023-01-16T11:39:42;25.85;;;3.03;;
44366;SDS011;30086;57.660;12.000;2023-01-16T11:42:12;15.23;;;3.05;;
44366;SDS011;30086;57.660;12.000;2023-01-16T11:44:58;25.30;;;4.03;;
44366;SDS011;30086;57.660;12.000;2023-01-16T11:47:44;14.88;;;2.38;;
44366;SDS011;30086;57.660;12.000;2023-01-16T11:52:56;14.75;;;2.80;;
44366;SDS011;30086;57.660;12.000;2023-01-16T11:55:25;18.63;;;3.15;;
44366;SDS011;30086;57.660;12.000;2023-01-16T12:03:05;11.93;;;2.33;;
44366;SDS011;30086;57.660;12.000;2023-01-16T12:05:45;17.40;;;2.63;;
44366;SDS011;30086;57.660;12.000;2023-01-16T12:11:11;19.35;;;2.60;;
44366;SDS011;30086;57.660;12.000;2023-01-16T12:13:40;19.38;;;3.25;;
44366;SDS011;30086;57.660;12.000;2023-01-16T12:16:31;23.45;;;3.13;;
44366;SDS011;30086;57.660;12.000;2023-01-16T12:19:04;14.88;;;2.75;;
44366;SDS011;30086;57.660;12.000;2023-01-16T12:32:21;16.25;;;3.13;;
44366;SDS011;30086;57.660;12.000;2023-01-16T12:40:02;14.25;;;2.03;;
44366;SDS011;30086;57.660;12.000;2023-01-16T12:50:28;6.50;;;1.85;;
44366;SDS011;30086;57.660;12.000;2023-01-16T12:53:07;11.68;;;1.65;;
44366;SDS011;30086;57.660;12.000;2023-01-16T12:58:11;8.85;;;2.25;;
44366;SDS011;30086;57.660;12.000;2023-01-16T13:03:29;7.32;;;1.67;;
44366;SDS011;30086;57.660;12.000;2023-01-16T13:06:00;8.43;;;1.52;;
44366;SDS011;30086;57.660;12.000;2023-01-16T13:08:35;8.07;;;1.60;;
44366;SDS011;30086;57.660;12.000;2023-01-16T13:11:13;9.02;;;1.60;;
44366;SDS011;30086;57.660;12.000;2023-01-16T13:13:59;6.78;;;1.20;;
44366;SDS011;30086;57.660;12.000;2023-01-16T13:16:29;8.50;;;2.53;;
44366;SDS011;30086;57.660;12.000;2023-01-16T13:19:02;5.22;;;1.30;;
44366;SDS011;30086;57.660;12.000;2023-01-16T13:21:32;4.18;;;1.23;;
44366;SDS011;30086;57.660;12.000;2023-01-16T13:24:01;4.88;;;0.70;;
44366;SDS011;30086;57.660;12.000;2023-01-16T13:26:29;9.02;;;1.30;;
44366;SDS011;30086;57.660;12.000;2023-01-16T13:29:13;6.43;;;1.17;;
44366;SDS011;30086;57.660;12.000;2023-01-16T13:31:41;3.90;;;0.68;;
44366;SDS011;30086;57.660;12.000;2023-01-16T13:34:11;6.82;;;1.48;;
44366;SDS011;30086;57.660;12.000;2023-01-16T13:42:05;3.83;;;0.90;;
44366;SDS011;30086;57.660;12.000;2023-01-16T13:44:34;5.90;;;1.10;;
44366;SDS011;30086;57.660;12.000;2023-01-16T13:47:21;6.13;;;1.25;;
44366;SDS011;30086;57.660;12.000;2023-01-16T13:49:48;14.10;;;1.50;;
44366;SDS011;30086;57.660;12.000;2023-01-16T13:52:18;3.45;;;0.73;;
44366;SDS011;30086;57.660;12.000;2023-01-16T13:54:45;3.28;;;1.23;;
44366;SDS011;30086;57.660;12.000;2023-01-16T13:57:20;6.97;;;1.25;;
44366;SDS011;30086;57.660;12.000;2023-01-16T13:59:47;5.97;;;1.35;;
44366;SDS011;30086;57.660;12.000;2023-01-16T14:08:24;5.90;;;0.85;;
44366;SDS011;30086;57.660;12.000;2023-01-16T14:13:24;7.05;;;1.05;;
44366;SDS011;30086;57.660;12.000;2023-01-16T14:23:56;4.80;;;1.70;;
44366;SDS011;30086;57.660;12.000;2023-01-16T14:31:44;8.85;;;2.58;;
44366;SDS011;30086;57.660;12.000;2023-01-16T14:34:32;7.53;;;1.90;;
44366;SDS011;30086;57.660;12.000;2023-01-16T14:37:43;11.32;;;2.10;;
44366;SDS011;30086;57.660;12.000;2023-01-16T14:42:37;12.65;;;2.30;;
44366;SDS011;30086;57.660;12.000;2023-01-16T14:45:27;16.58;;;2.30;;
44366;SDS011;30086;57.660;12.000;2023-01-16T14:57:13;13.43;;;2.47;;
44366;SDS011;30086;57.660;12.000;2023-01-16T14:59:44;10.27;;;2.47;;
44366;SDS011;30086;57.660;12.000;2023-01-16T15:10:09;10.47;;;2.23;;
44366;SDS011;30086;57.660;12.000;2023-01-16T15:12:40;13.35;;;2.55;;
44366;SDS011;30086;57.660;12.000;2023-01-16T15:15:26;11.02;;;2.85;;
44366;SDS011;30086;57.660;12.000;2023-01-16T15:17:53;10.85;;;3.30;;
44366;SDS011;30086;57.660;12.000;2023-01-16T15:20:38;15.15;;;2.90;;
44366;SDS011;30086;57.660;12.000;2023-01-16T15:31:04;9.65;;;3.15;;
44366;SDS011;30086;57.660;12.000;2023-01-16T15:33:32;10.15;;;3.60;;
44366;SDS011;30086;57.660;12.000;2023-01-16T15:41:17;11.98;;;3.95;;
44366;SDS011;30086;57.660;12.000;2023-01-16T15:43:43;11.40;;;3.35;;
44366;SDS011;30086;57.660;12.000;2023-01-16T15:51:52;12.45;;;3.25;;
44366;SDS011;30086;57.660;12.000;2023-01-16T15:54:18;11.25;;;3.53;;
44366;SDS011;30086;57.660;12.000;2023-01-16T15:56:45;7.32;;;3.25;;
44366;SDS011;30086;57.660;12.000;2023-01-16T15:59:23;10.95;;;3.40;;
44366;SDS011;30086;57.660;12.000;2023-01-16T16:01:53;16.80;;;3.58;;
44366;SDS011;30086;57.660;12.000;2023-01-16T16:04:20;7.65;;;3.05;;
44366;SDS011;30086;57.660;12.000;2023-01-16T16:06:48;10.45;;;3.70;;
44366;SDS011;30086;57.660;12.000;2023-01-16T16:09:18;13.63;;;3.58;;
44366;SDS011;30086;57.660;12.000;2023-01-16T16:11:45;6.68;;;2.70;;
44366;SDS011;30086;57.660;12.000;2023-01-16T16:14:35;13.05;;;3.33;;
44366;SDS011;30086;57.660;12.000;2023-01-16T16:17:24;13.32;;;3.00;;
44366;SDS011;30086;57.660;12.000;2023-01-16T16:20:25;10.50;;;3.20;;
44366;SDS011;30086;57.660;12.000;2023-01-16T16:22:51;9.88;;;2.95;;
44366;SDS011;30086;57.660;12.000;2023-01-16T16:27:45;7.43;;;2.80;;
44366;SDS011;30086;57.660;12.000;2023-01-16T16:30:19;7.50;;;2.75;;
44366;SDS011;30086;57.660;12.000;2023-01-16T16:32:47;11.68;;;3.22;;
44366;SDS011;30086;57.660;12.000;2023-01-16T16:37:45;15.63;;;2.95;;
44366;SDS011;30086;57.660;12.000;2023-01-16T16:40:15;8.63;;;2.80;;
44366;SDS011;30086;57.660;12.000;2023-01-16T16:45:24;9.63;;;3.50;;
44366;SDS011;30086;57.660;12.000;2023-01-16T16:50:35;7.45;;;3.00;;
44366;SDS011;30086;57.660;12.000;2023-01-16T16:55:29;8.75;;;3.78;;
44366;SDS011;30086;57.660;12.000;2023-01-16T16:57:57;10.50;;;3.38;;
44366;SDS011;30086;57.660;12.000;2023-01-16T17:00:23;6.82;;;2.75;;
44366;SDS011;30086;57.660;12.000;2023-01-16T17:02:50;6.93;;;2.53;;
44366;SDS011;30086;57.660;12.000;2023-01-16T17:05:18;7.50;;;2.58;;
44366;SDS011;30086;57.660;12.000;2023-01-16T17:07:46;7.47;;;2.95;;
44366;SDS011;30086;57.660;12.000;2023-01-16T17:10:12;12.05;;;3.10;;
44366;SDS011;30086;57.660;12.000;2023-01-16T17:12:39;6.47;;;3.08;;
44366;SDS011;30086;57.660;12.000;2023-01-16T17:15:05;6.50;;;2.65;;
44366;SDS011;30086;57.660;12.000;2023-01-16T17:17:32;9.25;;;3.33;;
44366;SDS011;30086;57.660;12.000;2023-01-16T17:19:58;11.68;;;3.53;;
44366;SDS011;30086;57.660;12.000;2023-01-16T17:22:24;6.25;;;3.05;;
44366;SDS011;30086;57.660;12.000;2023-01-16T17:24:50;5.90;;;2.72;;
44366;SDS011;30086;57.660;12.000;2023-01-16T17:27:19;12.32;;;4.13;;
44366;SDS011;30086;57.660;12.000;2023-01-16T17:29:45;7.97;;;3.03;;
44366;SDS011;30086;57.660;12.000;2023-01-16T17:32:24;9.30;;;4.05;;
44366;SDS011;30086;57.660;12.000;2023-01-16T17:34:54;9.38;;;3.30;;
44366;SDS011;30086;57.660;12.000;2023-01-16T17:37:20;10.38;;;3.17;;
44366;SDS011;30086;57.660;12.000;2023-01-16T17:39:46;11.02;;;3.15;;
44366;SDS011;30086;57.660;12.000;2023-01-16T17:42:12;10.82;;;3.45;;
44366;SDS011;30086;57.660;12.000;2023-01-16T17:44:38;12.40;;;3.70;;
44366;SDS011;30086;57.660;12.000;2023-01-16T17:47:23;8.55;;;3.03;;
44366;SDS011;30086;57.660;12.000;2023-01-16T17:49:51;7.05;;;3.00;;
44366;SDS011;30086;57.660;12.000;2023-01-16T17:52:36;12.93;;;2.90;;
44366;SDS011;30086;57.660;12.000;2023-01-16T17:55:02;8.50;;;3.40;;
44366;SDS011;30086;57.660;12.000;2023-01-16T17:57:46;6.90;;;2.80;;
44366;SDS011;30086;57.660;12.000;2023-01-16T18:00:13;13.05;;;3.00;;
44366;SDS011;30086;57.660;12.000;2023-01-16T18:02:39;7.35;;;2.58;;
44366;SDS011;30086;57.660;12.000;2023-01-16T18:05:06;6.10;;;2.65;;